createdAt,value
2022-11-18T00:01:11.946Z,17.00
2022-11-18T00:03:46.146Z,17.90
2022-11-18T00:06:21.035Z,15.70
2022-11-18T00:08:54.472Z,15.60
2022-11-18T00:11:46.296Z,16.60
2022-11-18T00:14:22.446Z,18.70
2022-11-18T00:16:57.553Z,19.70
2022-11-18T00:19:32.522Z,18.00
2022-11-18T00:22:05.853Z,19.70
2022-11-18T00:24:39.256Z,18.20
2022-11-18T00:27:11.994Z,17.60
2022-11-18T00:29:44.696Z,18.20
2022-11-18T00:32:17.445Z,18.40
2022-11-18T00:34:50.171Z,16.10
2022-11-18T00:37:22.399Z,17.10
2022-11-18T00:39:55.258Z,17.80
2022-11-18T00:42:45.021Z,17.30
2022-11-18T00:45:18.049Z,17.70
2022-11-18T00:47:51.236Z,19.60
2022-11-18T00:50:24.618Z,17.20
2022-11-18T00:52:56.823Z,17.00
2022-11-18T00:55:30.728Z,16.90
2022-11-18T00:58:03.130Z,15.40
2022-11-18T01:00:35.814Z,17.10
2022-11-18T01:03:08.200Z,18.60
2022-11-18T01:05:40.935Z,16.80
2022-11-18T01:08:14.737Z,17.00
2022-11-18T01:10:48.741Z,16.90
2022-11-18T01:13:24.273Z,16.40
2022-11-18T01:15:59.091Z,15.80
2022-11-18T01:18:33.661Z,17.50
2022-11-18T01:21:07.569Z,19.00
2022-11-18T01:23:40.325Z,17.30
2022-11-18T01:26:15.842Z,20.10
2022-11-18T01:28:49.358Z,18.20
2022-11-18T01:31:22.545Z,14.90
2022-11-18T01:33:55.044Z,16.80
2022-11-18T01:36:28.711Z,21.30
2022-11-18T01:39:01.881Z,18.50
2022-11-18T01:41:35.049Z,18.10
2022-11-18T01:44:22.259Z,17.60
2022-11-18T01:46:54.521Z,17.40
2022-11-18T01:49:27.124Z,16.50
2022-11-18T01:52:01.345Z,16.50
2022-11-18T01:54:40.875Z,18.40
2022-11-18T01:57:19.017Z,16.20
2022-11-18T01:59:54.955Z,16.90
2022-11-18T02:05:00.685Z,17.20
2022-11-18T02:07:36.302Z,16.80
2022-11-18T02:10:18.291Z,18.30
2022-11-18T02:12:52.406Z,14.20
2022-11-18T02:15:34.708Z,15.50
2022-11-18T02:18:15.823Z,16.00
2022-11-18T02:20:51.479Z,16.90
2022-11-18T02:23:59.529Z,18.50
2022-11-18T02:27:08.225Z,15.50
2022-11-18T02:29:46.678Z,17.70
2022-11-18T02:32:25.949Z,16.90
2022-11-18T02:35:04.400Z,16.80
2022-11-18T02:37:43.862Z,18.60
2022-11-18T02:40:21.709Z,18.20
2022-11-18T02:43:01.088Z,19.90
2022-11-18T02:45:35.293Z,18.70
2022-11-18T02:48:12.478Z,19.40
2022-11-18T02:50:46.923Z,16.30
2022-11-18T02:53:22.653Z,17.30
2022-11-18T02:55:56.727Z,19.70
2022-11-18T02:58:29.385Z,22.90
2022-11-18T03:01:03.135Z,23.20
2022-11-18T03:03:37.372Z,16.70
2022-11-18T03:06:21.266Z,17.50
2022-11-18T03:09:00.663Z,20.20
2022-11-18T03:11:38.985Z,18.80
2022-11-18T03:14:26.202Z,20.50
2022-11-18T03:17:02.697Z,22.70
2022-11-18T03:19:59.819Z,19.60
2022-11-18T03:22:39.288Z,21.30
2022-11-18T03:25:17.743Z,23.20
2022-11-18T03:27:55.933Z,20.80
2022-11-18T03:30:31.979Z,22.40
2022-11-18T03:33:10.952Z,19.60
2022-11-18T03:35:47.932Z,19.90
2022-11-18T03:38:25.022Z,25.60
2022-11-18T03:41:01.201Z,19.10
2022-11-18T03:43:39.237Z,21.20
2022-11-18T03:46:16.776Z,26.10
2022-11-18T03:48:53.217Z,21.40
2022-11-18T03:51:32.232Z,17.30
2022-11-18T03:54:10.332Z,18.00
2022-11-18T03:56:47.952Z,23.40
2022-11-18T03:59:25.237Z,21.60
2022-11-18T04:02:03.152Z,16.80
2022-11-18T04:04:36.794Z,16.90
2022-11-18T04:07:18.018Z,25.40
2022-11-18T04:09:56.696Z,17.80
2022-11-18T04:12:32.923Z,15.50
2022-11-18T04:15:06.160Z,23.50
2022-11-18T04:17:41.997Z,17.60
2022-11-18T04:22:52.467Z,12.60
2022-11-18T04:25:25.748Z,17.20
2022-11-18T04:27:58.009Z,15.40
2022-11-18T04:30:31.628Z,15.90
2022-11-18T04:33:05.397Z,13.60
2022-11-18T04:35:37.700Z,16.00
2022-11-18T04:38:10.840Z,12.20
2022-11-18T04:40:44.096Z,15.50
2022-11-18T04:43:17.629Z,11.40
2022-11-18T04:45:49.914Z,13.90
2022-11-18T04:48:22.271Z,16.70
2022-11-18T04:50:54.466Z,11.40
2022-11-18T04:53:26.909Z,12.80
2022-11-18T04:56:05.532Z,11.50
2022-11-18T04:58:38.276Z,12.30
2022-11-18T05:01:11.556Z,15.10
2022-11-18T05:03:50.315Z,12.60
2022-11-18T05:06:23.420Z,12.10
2022-11-18T05:08:55.920Z,12.90
2022-11-18T05:11:46.272Z,14.40
2022-11-18T05:14:19.507Z,16.60
2022-11-18T05:16:52.407Z,15.50
2022-11-18T05:19:24.820Z,17.70
2022-11-18T05:21:58.127Z,17.40
2022-11-18T05:24:31.186Z,12.40
2022-11-18T05:27:04.443Z,15.80
2022-11-18T05:29:36.835Z,12.00
2022-11-18T05:32:10.475Z,13.00
2022-11-18T05:34:44.360Z,13.60
2022-11-18T05:37:16.732Z,15.50
2022-11-18T05:39:49.516Z,14.10
2022-11-18T05:42:39.408Z,15.70
2022-11-18T05:45:12.329Z,16.30
2022-11-18T05:47:58.433Z,14.70
2022-11-18T05:50:31.461Z,13.10
2022-11-18T05:53:05.397Z,10.10
2022-11-18T05:55:42.027Z,21.60
2022-11-18T05:58:15.567Z,12.70
2022-11-18T06:00:51.189Z,12.30
2022-11-18T06:03:30.747Z,14.50
2022-11-18T06:06:06.853Z,12.00
2022-11-18T06:08:44.656Z,11.20
2022-11-18T06:11:20.899Z,11.20
2022-11-18T06:13:55.421Z,10.30
2022-11-18T06:16:33.389Z,10.50
2022-11-18T06:19:09.490Z,12.60
2022-11-18T06:21:42.655Z,10.60
2022-11-18T06:24:16.717Z,10.00
2022-11-18T06:26:51.201Z,11.60
2022-11-18T06:29:27.941Z,10.50
2022-11-18T06:32:00.573Z,13.90
2022-11-18T06:34:38.205Z,16.30
2022-11-18T06:37:18.598Z,12.10
2022-11-18T06:39:51.023Z,11.80
2022-11-18T06:42:40.939Z,16.20
2022-11-18T06:45:15.123Z,11.60
2022-11-18T06:47:47.520Z,10.40
2022-11-18T06:50:20.584Z,11.80
2022-11-18T06:52:53.248Z,11.50
2022-11-18T06:55:25.572Z,14.50
2022-11-18T06:58:00.535Z,13.50
2022-11-18T07:00:33.373Z,13.00
2022-11-18T07:03:07.384Z,10.70
2022-11-18T07:05:40.672Z,16.00
2022-11-18T07:08:13.720Z,13.10
2022-11-18T07:10:55.683Z,13.30
2022-11-18T07:13:28.292Z,11.40
2022-11-18T07:16:06.667Z,14.20
2022-11-18T07:18:41.751Z,14.20
2022-11-18T07:21:16.929Z,11.00
2022-11-18T07:23:50.484Z,12.70
2022-11-18T07:26:23.308Z,15.20
2022-11-18T07:28:56.949Z,15.20
2022-11-18T07:31:29.630Z,15.60
2022-11-18T07:34:02.335Z,15.70
2022-11-18T07:36:36.185Z,12.70
2022-11-18T07:39:10.749Z,11.10
2022-11-18T07:41:43.591Z,12.50
2022-11-18T07:44:17.671Z,16.70
2022-11-18T07:46:50.074Z,18.20
2022-11-18T07:49:22.827Z,11.10
2022-11-18T07:51:55.134Z,13.60
2022-11-18T07:54:27.842Z,13.00
2022-11-18T07:57:00.263Z,12.20
2022-11-18T07:59:33.899Z,15.80
2022-11-18T08:02:07.152Z,14.90
2022-11-18T08:04:41.776Z,18.70
2022-11-18T08:07:14.356Z,14.70
2022-11-18T08:09:46.812Z,12.50
2022-11-18T08:12:19.123Z,14.20
2022-11-18T08:14:51.783Z,13.00
2022-11-18T08:17:24.115Z,13.70
2022-11-18T08:19:56.925Z,25.00
2022-11-18T08:22:29.644Z,14.30
2022-11-18T08:25:02.271Z,12.80
2022-11-18T08:27:35.457Z,10.90
2022-11-18T08:30:09.247Z,12.30
2022-11-18T08:32:41.965Z,16.40
2022-11-18T08:35:14.868Z,16.50
2022-11-18T08:37:47.357Z,18.60
2022-11-18T08:40:20.663Z,11.80
2022-11-18T08:42:53.406Z,11.50
2022-11-18T08:45:25.771Z,16.20
2022-11-18T08:47:58.106Z,14.10
2022-11-18T08:50:30.597Z,13.90
2022-11-18T08:53:02.792Z,12.80
2022-11-18T08:55:35.017Z,14.70
2022-11-18T08:58:07.437Z,15.70
2022-11-18T09:00:40.189Z,15.30
2022-11-18T09:03:12.490Z,16.30
2022-11-18T09:05:44.853Z,13.10
2022-11-18T09:08:17.665Z,19.50
2022-11-18T09:10:50.164Z,12.90
2022-11-18T09:13:49.762Z,12.60
2022-11-18T09:16:14.670Z,14.70
2022-11-18T09:18:45.700Z,13.20
2022-11-18T09:21:18.394Z,17.30
2022-11-18T09:23:50.686Z,14.50
2022-11-18T09:26:24.469Z,15.10
2022-11-18T09:28:57.686Z,16.20
2022-11-18T09:31:30.819Z,14.00
2022-11-18T09:34:03.650Z,15.60
2022-11-18T09:36:36.281Z,19.50
2022-11-18T09:39:08.699Z,22.00
2022-11-18T09:41:48.583Z,14.90
2022-11-18T09:44:42.362Z,16.50
2022-11-18T09:47:26.313Z,14.30
2022-11-18T09:50:14.933Z,15.90
2022-11-18T09:53:05.661Z,19.10
2022-11-18T09:55:41.178Z,15.60
2022-11-18T09:58:24.580Z,14.10
2022-11-18T10:00:56.825Z,17.20
2022-11-18T10:03:34.246Z,17.90
2022-11-18T10:06:23.603Z,17.80
2022-11-18T10:09:06.979Z,13.10
2022-11-18T10:11:52.003Z,15.30
2022-11-18T10:14:41.327Z,17.40
2022-11-18T10:17:26.372Z,18.60
2022-11-18T10:20:21.820Z,17.80
2022-11-18T10:22:59.314Z,17.20
2022-11-18T10:25:31.739Z,15.40
2022-11-18T10:28:15.138Z,16.60
2022-11-18T10:30:47.836Z,16.90
2022-11-18T10:33:31.094Z,19.60
2022-11-18T10:36:20.156Z,19.40
2022-11-18T10:39:06.193Z,20.20
2022-11-18T10:41:48.153Z,15.40
2022-11-18T10:44:33.557Z,17.00
2022-11-18T10:47:33.095Z,17.10
2022-11-18T10:50:36.047Z,19.30
2022-11-18T10:53:26.024Z,18.00
2022-11-18T10:56:03.487Z,17.80
2022-11-18T10:58:42.127Z,17.00
2022-11-18T11:01:24.605Z,20.50
2022-11-18T11:04:03.759Z,22.70
2022-11-18T11:06:38.900Z,19.10
2022-11-18T11:09:25.268Z,27.10
2022-11-18T11:12:05.326Z,18.30
2022-11-18T11:14:51.434Z,32.60
2022-11-18T11:17:31.707Z,16.20
2022-11-18T11:20:16.081Z,17.90
2022-11-18T11:22:48.970Z,25.90
2022-11-18T11:25:29.404Z,19.80
2022-11-18T11:28:17.181Z,25.50
2022-11-18T11:31:01.799Z,25.90
2022-11-18T11:33:44.121Z,18.50
2022-11-18T11:36:40.100Z,19.00
2022-11-18T11:39:33.311Z,24.80
2022-11-18T11:42:15.995Z,20.60
2022-11-18T11:44:58.837Z,18.00
2022-11-18T11:47:51.741Z,20.70
2022-11-18T11:51:01.641Z,20.00
2022-11-18T11:54:04.367Z,17.70
2022-11-18T11:56:42.731Z,19.50
2022-11-18T11:59:26.819Z,18.00
2022-11-18T12:02:34.767Z,17.30
2022-11-18T12:05:18.639Z,20.50
2022-11-18T12:07:57.002Z,13.90
2022-11-18T12:10:44.391Z,21.00
2022-11-18T12:13:31.193Z,19.00
2022-11-18T12:16:13.696Z,18.00
2022-11-18T12:18:52.711Z,17.80
2022-11-18T12:22:00.578Z,23.10
2022-11-18T12:24:38.559Z,23.10
2022-11-18T12:27:16.323Z,18.10
2022-11-18T12:30:00.153Z,23.50
2022-11-18T12:32:42.989Z,20.40
2022-11-18T12:35:30.611Z,17.90
2022-11-18T12:38:04.954Z,22.40
2022-11-18T12:40:48.773Z,21.90
2022-11-18T12:44:05.910Z,17.50
2022-11-18T12:46:58.262Z,29.90
2022-11-18T12:50:13.574Z,19.30
2022-11-18T12:52:59.693Z,20.80
2022-11-18T12:58:21.455Z,16.40
2022-11-18T13:01:06.425Z,19.00
2022-11-18T13:03:39.281Z,18.50
2022-11-18T13:06:23.499Z,17.10
2022-11-18T13:09:00.038Z,17.80
2022-11-18T13:11:46.436Z,21.10
2022-11-18T13:14:39.734Z,19.00
2022-11-18T13:17:50.316Z,21.70
2022-11-18T13:20:31.499Z,19.90
2022-11-18T13:23:23.829Z,26.20
2022-11-18T13:25:57.610Z,19.70
2022-11-18T13:28:38.602Z,20.60
2022-11-18T13:31:19.027Z,24.40
2022-11-18T13:33:53.592Z,25.10
2022-11-18T13:36:27.732Z,28.20
2022-11-18T13:39:02.029Z,24.70
2022-11-18T13:41:36.613Z,21.90
2022-11-18T13:44:23.047Z,25.20
2022-11-18T13:47:01.258Z,26.60
2022-11-18T13:49:50.260Z,27.10
2022-11-18T13:52:30.479Z,22.10
2022-11-18T13:55:08.672Z,22.20
2022-11-18T13:57:42.741Z,28.90
2022-11-18T14:00:25.567Z,24.00
2022-11-18T14:03:02.298Z,19.80
2022-11-18T14:05:35.421Z,23.10
2022-11-18T14:08:21.754Z,22.30
2022-11-18T14:13:29.412Z,22.70
2022-11-18T14:16:04.450Z,24.00
2022-11-18T14:18:38.506Z,24.40
2022-11-18T14:21:15.090Z,21.90
2022-11-18T14:23:47.844Z,23.20
2022-11-18T14:26:30.566Z,22.10
2022-11-18T14:29:05.655Z,36.20
2022-11-18T14:31:38.362Z,29.20
2022-11-18T14:34:23.642Z,19.10
2022-11-18T14:36:57.099Z,21.70
2022-11-18T14:39:32.266Z,20.20
2022-11-18T14:42:05.842Z,21.10
2022-11-18T14:44:38.654Z,19.50
2022-11-18T14:47:19.950Z,20.00
2022-11-18T14:49:52.614Z,24.20
2022-11-18T14:52:24.833Z,27.50
2022-11-18T14:54:58.075Z,28.10
2022-11-18T14:57:32.186Z,23.00
2022-11-18T15:00:06.774Z,25.70
2022-11-18T15:02:39.284Z,26.60
2022-11-18T15:05:12.620Z,25.40
2022-11-18T15:07:45.533Z,23.80
2022-11-18T15:10:19.015Z,24.10
2022-11-18T15:12:51.998Z,28.70
2022-11-18T15:15:25.164Z,29.30
2022-11-18T15:17:58.202Z,23.50
2022-11-18T15:20:32.214Z,23.40
2022-11-18T15:23:05.939Z,23.50
2022-11-18T15:25:38.384Z,31.60
2022-11-18T15:28:12.873Z,25.80
2022-11-18T15:30:46.033Z,25.60
2022-11-18T15:33:18.463Z,30.20
2022-11-18T15:35:51.958Z,30.10
2022-11-18T15:38:25.095Z,28.60
2022-11-18T15:40:58.435Z,24.00
2022-11-18T15:43:31.127Z,33.30
2022-11-18T15:46:03.883Z,29.20
2022-11-18T15:48:36.783Z,26.30
2022-11-18T15:51:12.158Z,31.10
2022-11-18T15:56:26.198Z,28.20
2022-11-18T15:59:00.808Z,26.20
2022-11-18T16:01:35.756Z,26.40
2022-11-18T16:04:11.668Z,29.20
2022-11-18T16:09:18.024Z,31.90
2022-11-18T16:12:08.423Z,26.00
2022-11-18T16:14:41.086Z,30.00
2022-11-18T16:17:13.447Z,33.90
2022-11-18T16:19:46.627Z,27.30
2022-11-18T16:22:20.322Z,29.10
2022-11-18T16:24:53.840Z,25.40
2022-11-18T16:27:26.755Z,32.20
2022-11-18T16:29:59.748Z,33.40
2022-11-18T16:32:33.822Z,29.50
2022-11-18T16:35:07.149Z,25.50
2022-11-18T16:37:39.999Z,29.80
2022-11-18T16:40:14.350Z,29.40
2022-11-18T16:42:49.457Z,26.30
2022-11-18T16:45:23.137Z,30.60
2022-11-18T16:47:55.727Z,25.60
2022-11-18T16:50:29.330Z,27.90
2022-11-18T16:53:02.062Z,26.80
2022-11-18T16:55:34.778Z,27.90
2022-11-18T16:58:08.157Z,25.60
2022-11-18T17:01:09.627Z,26.10
2022-11-18T17:03:35.870Z,30.00
2022-11-18T17:06:10.146Z,28.70
2022-11-18T17:08:43.313Z,28.50
2022-11-18T17:11:16.835Z,28.30
2022-11-18T17:13:53.330Z,25.40
2022-11-18T17:16:30.261Z,28.60
2022-11-18T17:19:08.560Z,25.20
2022-11-18T17:21:45.399Z,24.40
2022-11-18T17:24:22.472Z,27.50
2022-11-18T17:26:56.687Z,30.60
2022-11-18T17:29:33.351Z,28.70
2022-11-18T17:32:07.795Z,27.20
2022-11-18T17:34:41.977Z,27.50
2022-11-18T17:37:18.011Z,29.40
2022-11-18T17:39:51.768Z,30.40
2022-11-18T17:42:25.898Z,30.60
2022-11-18T17:44:59.006Z,36.50
2022-11-18T17:47:31.992Z,33.10
2022-11-18T17:50:04.773Z,30.10
2022-11-18T17:52:37.677Z,30.00
2022-11-18T17:55:11.821Z,29.60
2022-11-18T17:57:45.084Z,30.70
2022-11-18T18:00:19.916Z,32.00
2022-11-18T18:02:54.473Z,30.40
2022-11-18T18:05:29.520Z,28.70
2022-11-18T18:08:04.591Z,31.50
2022-11-18T18:10:39.590Z,29.50
2022-11-18T18:13:31.221Z,29.00
2022-11-18T18:16:04.855Z,31.50
2022-11-18T18:18:37.704Z,30.00
2022-11-18T18:21:13.045Z,35.00
2022-11-18T18:23:47.933Z,30.80
2022-11-18T18:26:24.208Z,37.60
2022-11-18T18:29:01.322Z,32.90
2022-11-18T18:31:36.816Z,32.90
2022-11-18T18:34:09.827Z,34.40
2022-11-18T18:36:42.475Z,33.50
2022-11-18T18:39:14.896Z,34.90
2022-11-18T18:41:49.322Z,30.30
2022-11-18T18:44:22.279Z,29.00
2022-11-18T18:46:56.132Z,31.40
2022-11-18T18:49:29.990Z,35.00
2022-11-18T18:52:03.446Z,31.80
2022-11-18T18:54:37.178Z,32.20
2022-11-18T18:57:09.779Z,31.70
2022-11-18T18:59:43.043Z,30.60
2022-11-18T19:02:16.627Z,27.30
2022-11-18T19:04:50.492Z,30.00
2022-11-18T19:07:24.015Z,31.90
2022-11-18T19:09:56.747Z,30.10
2022-11-18T19:12:44.622Z,33.30
2022-11-18T19:15:18.052Z,30.80
2022-11-18T19:17:50.901Z,30.70
2022-11-18T19:20:36.952Z,35.70
2022-11-18T19:25:44.143Z,34.40
2022-11-18T19:28:16.727Z,31.80
2022-11-18T19:30:50.018Z,29.60
2022-11-18T19:33:22.393Z,27.20
2022-11-18T19:35:55.431Z,30.00
2022-11-18T19:38:28.879Z,33.90
2022-11-18T19:41:05.458Z,29.00
2022-11-18T19:43:39.081Z,29.60
2022-11-18T19:46:13.671Z,32.90
2022-11-18T19:48:51.251Z,28.80
2022-11-18T19:51:24.766Z,32.50
2022-11-18T19:53:59.838Z,29.10
2022-11-18T19:56:32.339Z,28.60
2022-11-18T19:59:05.053Z,33.50
2022-11-18T20:01:37.452Z,29.80
2022-11-18T20:04:10.862Z,31.50
2022-11-18T20:06:44.241Z,25.80
2022-11-18T20:09:16.857Z,30.60
2022-11-18T20:11:49.892Z,27.30
2022-11-18T20:16:56.307Z,29.20
2022-11-18T20:19:29.285Z,29.00
2022-11-18T20:22:02.599Z,27.70
2022-11-18T20:24:35.067Z,30.90
2022-11-18T20:27:07.397Z,29.00
2022-11-18T20:29:39.812Z,32.60
2022-11-18T20:32:12.140Z,33.10
2022-11-18T20:34:45.125Z,36.60
2022-11-18T20:37:19.005Z,31.10
2022-11-18T20:39:52.932Z,35.50
2022-11-18T20:42:44.233Z,36.00
2022-11-18T20:45:17.970Z,38.40
2022-11-18T20:47:50.439Z,33.40
2022-11-18T20:50:23.438Z,37.00
2022-11-18T20:52:56.114Z,32.80
2022-11-18T20:55:30.103Z,39.70
2022-11-18T20:58:05.535Z,33.00
2022-11-18T21:00:38.329Z,33.70
2022-11-18T21:03:12.567Z,33.80
2022-11-18T21:05:45.769Z,34.40
2022-11-18T21:08:18.537Z,31.00
2022-11-18T21:10:50.922Z,38.10
2022-11-18T21:13:41.164Z,34.90
2022-11-18T21:16:13.924Z,34.10
2022-11-18T21:18:46.832Z,35.00
2022-11-18T21:21:37.651Z,33.50
2022-11-18T21:24:11.677Z,36.80
2022-11-18T21:26:44.778Z,40.10
2022-11-18T21:29:19.718Z,37.20
2022-11-18T21:31:53.451Z,34.70
2022-11-18T21:34:26.742Z,38.20
2022-11-18T21:36:59.957Z,37.20
2022-11-18T21:39:34.600Z,34.30
2022-11-18T21:42:08.332Z,34.40
2022-11-18T21:44:41.482Z,38.70
2022-11-18T21:47:14.183Z,36.00
2022-11-18T21:49:46.515Z,33.30
2022-11-18T21:52:19.251Z,38.60
2022-11-18T21:54:51.701Z,33.20
2022-11-18T21:57:24.948Z,34.00
2022-11-18T21:59:57.705Z,39.40
2022-11-18T22:02:30.551Z,36.90
2022-11-18T22:05:06.917Z,36.60
2022-11-18T22:07:40.662Z,38.30
2022-11-18T22:10:14.603Z,34.50
2022-11-18T22:12:49.197Z,35.60
2022-11-18T22:15:22.192Z,37.40
2022-11-18T22:17:54.643Z,36.30
2022-11-18T22:20:27.172Z,34.90
2022-11-18T22:22:59.451Z,32.50
2022-11-18T22:25:33.015Z,39.30
2022-11-18T22:28:06.255Z,41.10
2022-11-18T22:30:38.849Z,34.30
2022-11-18T22:33:11.167Z,36.80
2022-11-18T22:35:43.654Z,33.00
2022-11-18T22:38:16.546Z,36.70
2022-11-18T22:40:49.369Z,33.30
2022-11-18T22:43:21.672Z,43.10
2022-11-18T22:46:02.727Z,37.50
2022-11-18T22:48:36.202Z,33.20
2022-11-18T22:51:10.516Z,34.00
2022-11-18T22:53:44.019Z,39.70
2022-11-18T22:56:18.124Z,38.30
2022-11-18T22:58:51.248Z,35.10
2022-11-18T23:01:25.341Z,35.70
2022-11-18T23:03:57.875Z,35.70
2022-11-18T23:06:31.506Z,33.10
2022-11-18T23:09:03.966Z,33.50
2022-11-18T23:11:54.226Z,38.30
2022-11-18T23:14:28.032Z,34.70
2022-11-18T23:17:01.278Z,35.40
2022-11-18T23:19:33.823Z,36.20
2022-11-18T23:22:06.403Z,36.20
2022-11-18T23:24:40.089Z,37.40
2022-11-18T23:27:13.591Z,35.60
2022-11-18T23:29:47.272Z,37.40
2022-11-18T23:32:21.650Z,30.00
2022-11-18T23:34:54.378Z,36.70
2022-11-18T23:37:27.252Z,34.90
2022-11-18T23:39:59.668Z,37.80
2022-11-18T23:42:33.667Z,37.00
2022-11-18T23:45:09.583Z,31.60
2022-11-18T23:50:13.251Z,36.10
2022-11-18T23:52:46.847Z,37.60
2022-11-18T23:55:19.935Z,32.90
2022-11-18T23:57:54.414Z,27.20
